Time;durP1;ratioP1;P1;durP2;ratioP2;P2;SDS_P1;SDS_P2;PMS_P1;PMS_P2;Temp;Humidity;BMP_temperature;BMP_pressure;BME280_temperature;BME280_humidity;BME280_pressure;Samples;Min_cycle;Max_cycle;Signal;HPM_P1;HPM_P2
2021/01/19 00:00:17;;;;;;;17.42;8.20;;;;;;;9.57;61.68;101582.94;4973587;28;123109;-70
2021/01/19 00:02:44;;;;;;;20.08;7.72;;;;;;;9.54;61.77;101576.81;4969037;28;114233;-70
2021/01/19 00:05:11;;;;;;;16.27;7.35;;;;;;;9.51;61.56;101570.75;4986520;28;114111;-70
2021/01/19 00:07:37;;;;;;;14.57;6.78;;;;;;;9.50;61.49;101575.19;4991329;28;124383;-71
2021/01/19 00:10:05;;;;;;;13.93;6.72;;;;;;;9.47;61.77;101567.31;4992268;28;124433;-70
2021/01/19 00:12:32;;;;;;;14.75;6.07;;;;;;;9.45;61.89;101571.78;4990494;28;115142;-70
2021/01/19 00:14:58;;;;;;;14.77;6.05;;;;;;;9.43;61.68;101563.03;4989707;28;114682;-70
2021/01/19 00:17:25;;;;;;;15.98;6.18;;;;;;;9.42;61.61;101557.78;4974217;28;123940;-70
2021/01/19 00:19:52;;;;;;;15.95;5.80;;;;;;;9.42;61.60;101561.31;4985860;28;126065;-70
2021/01/19 00:22:18;;;;;;;16.92;5.65;;;;;;;9.41;61.74;101549.00;4972884;28;113476;-70
2021/01/19 00:24:45;;;;;;;15.60;5.70;;;;;;;9.40;61.52;101547.28;4988810;28;113848;-70
2021/01/19 00:27:11;;;;;;;19.58;5.72;;;;;;;9.39;61.46;101540.25;4979085;28;124357;-69
2021/01/19 00:29:38;;;;;;;14.13;4.93;;;;;;;9.36;61.53;101535.03;4983989;28;123667;-70
2021/01/19 00:32:04;;;;;;;17.95;5.18;;;;;;;9.36;61.43;101529.75;4990164;28;113781;-70
2021/01/19 00:34:31;;;;;;;13.68;4.82;;;;;;;9.35;61.60;101523.59;4974438;28;113711;-70
2021/01/19 00:36:58;;;;;;;13.57;4.70;;;;;;;9.34;61.39;101516.59;4972473;28;123376;-70
2021/01/19 00:39:25;;;;;;;14.80;4.45;;;;;;;9.34;61.90;101510.44;4984932;28;123671;-70
2021/01/19 00:41:51;;;;;;;14.05;4.90;;;;;;;9.32;61.37;101507.84;4982682;28;115439;-70
2021/01/19 00:44:18;;;;;;;16.55;4.47;;;;;;;9.33;61.45;101514.00;4970081;28;114657;-69
2021/01/19 00:46:45;;;;;;;13.55;4.22;;;;;;;9.35;61.12;101501.59;4987501;28;124182;-70
2021/01/19 00:49:11;;;;;;;14.02;4.15;;;;;;;9.34;61.21;101505.16;4954054;28;123386;-70
2021/01/19 00:51:38;;;;;;;11.48;3.97;;;;;;;9.35;61.13;101496.31;4971654;28;114885;-70
2021/01/19 00:54:06;;;;;;;14.77;4.00;;;;;;;9.35;61.21;101491.03;4971135;28;113394;-70
2021/01/19 00:56:40;;;;;;;14.10;3.50;;;;;;;9.33;61.19;101492.84;4970839;28;123232;-71
2021/01/19 00:59:09;;;;;;;15.60;4.47;;;;;;;9.34;60.89;101494.56;4955151;28;123274;-70
2021/01/19 01:01:49;;;;;;;12.30;3.60;;;;;;;9.33;61.17;101484.94;4989251;28;114343;-70
2021/01/19 01:04:16;;;;;;;13.98;3.55;;;;;;;9.31;61.00;101476.19;4987419;28;114001;-71
2021/01/19 01:06:43;;;;;;;12.10;3.67;;;;;;;9.29;60.81;101484.16;4991853;28;124132;-70
2021/01/19 01:09:09;;;;;;;12.73;3.35;;;;;;;9.29;60.70;101480.66;4986948;28;123312;-70
2021/01/19 01:11:39;;;;;;;12.73;3.40;;;;;;;9.29;60.51;101470.06;4986610;28;113386;-70
2021/01/19 01:14:06;;;;;;;9.70;3.13;;;;;;;9.30;60.46;101463.84;4988276;28;114182;-70
2021/01/19 01:16:35;;;;;;;10.40;3.13;;;;;;;9.30;60.30;101461.22;4954164;28;121024;-70
2021/01/19 01:19:02;;;;;;;9.45;3.08;;;;;;;9.31;60.52;101455.03;4973566;28;124689;-70
2021/01/19 01:21:28;;;;;;;10.40;3.05;;;;;;;9.30;60.39;101456.78;4989013;28;114779;-70
2021/01/19 01:23:55;;;;;;;9.13;2.83;;;;;;;9.30;60.22;101450.63;4988803;28;114719;-69
2021/01/19 01:26:23;;;;;;;13.75;3.22;;;;;;;9.29;60.29;101443.63;4971154;28;123403;-69
2021/01/19 01:28:50;;;;;;;9.75;2.92;;;;;;;9.27;60.12;101434.91;4970386;28;122943;-68
2021/01/19 01:31:20;;;;;;;15.13;3.10;;;;;;;9.27;60.09;101425.19;4985538;28;115985;-69
2021/01/19 01:33:47;;;;;;;12.07;2.88;;;;;;;9.27;59.97;101421.69;4985627;28;114962;-69
2021/01/19 01:36:14;;;;;;;14.88;3.45;;;;;;;9.27;60.19;101413.75;4985858;28;123154;-69
2021/01/19 01:38:42;;;;;;;12.38;2.88;;;;;;;9.25;59.71;101405.84;4988509;28;123698;-69
2021/01/19 01:41:26;;;;;;;9.57;2.78;;;;;;;9.23;59.80;101401.50;4979634;28;114487;-69
2021/01/19 01:43:53;;;;;;;5.60;2.47;;;;;;;9.23;59.80;101396.22;4977362;28;115918;-69
2021/01/19 01:46:20;;;;;;;8.48;2.47;;;;;;;9.21;59.56;101387.47;4971361;28;123152;-69
2021/01/19 01:48:47;;;;;;;8.20;2.80;;;;;;;9.20;59.65;101388.41;4989059;28;124151;-68
2021/01/19 01:51:15;;;;;;;10.25;2.60;;;;;;;9.19;59.51;101381.38;4970345;28;113691;-68
2021/01/19 01:53:42;;;;;;;8.15;2.88;;;;;;;9.17;59.59;101370.84;4984556;28;113956;-69
2021/01/19 01:56:11;;;;;;;7.38;2.60;;;;;;;9.18;59.73;101358.53;4981624;28;124444;-69
2021/01/19 01:58:38;;;;;;;6.80;2.70;;;;;;;9.19;59.10;101357.59;4987096;28;123971;-69
2021/01/19 02:01:05;;;;;;;9.32;3.00;;;;;;;9.16;58.80;101348.84;4979045;28;114971;-69
2021/01/19 02:03:33;;;;;;;8.32;2.63;;;;;;;9.13;58.86;101343.66;4982073;28;114085;-69
2021/01/19 02:06:01;;;;;;;8.23;2.50;;;;;;;9.11;58.71;101334.91;4972882;28;124061;-68
2021/01/19 02:08:49;;;;;;;10.25;2.97;;;;;;;9.07;58.77;101337.72;4956830;28;122581;-69
2021/01/19 02:11:34;;;;;;;10.60;2.75;;;;;;;9.03;58.96;101329.00;4986809;28;115186;-69
2021/01/19 02:14:31;;;;;;;8.63;2.78;;;;;;;9.03;58.83;101326.38;4954835;28;113529;-70
2021/01/19 02:17:16;;;;;;;;;;;;;;;9.01;59.26;101317.63;4984463;28;123214;-69
2021/01/19 02:20:11;;;;;;;10.60;2.97;;;;;;;8.99;59.36;101303.59;4984892;28;124664;-69
2021/01/19 02:23:15;;;;;;;9.27;2.75;;;;;;;8.96;58.90;101298.41;4987791;28;115484;-70
2021/01/19 02:26:08;;;;;;;11.32;3.00;;;;;;;8.93;59.05;101298.50;4971175;28;114174;-69
2021/01/19 02:28:37;;;;;;;11.52;3.00;;;;;;;8.91;58.96;101295.03;4986836;28;124323;-69
2021/01/19 02:31:20;;;;;;;8.68;3.00;;;;;;;8.90;58.78;101290.69;4990514;28;124398;-69
2021/01/19 02:33:57;;;;;;;10.13;2.70;;;;;;;8.89;59.00;101281.91;4988587;28;113995;-69
2021/01/19 02:36:48;;;;;;;10.82;3.22;;;;;;;8.89;59.16;101275.72;4956860;28;113623;-70
2021/01/19 02:39:44;;;;;;;7.93;2.78;;;;;;;8.88;58.85;101268.72;4965773;28;124031;-69
2021/01/19 02:42:14;;;;;;;11.18;3.40;;;;;;;8.90;59.16;101256.34;4985468;28;123364;-69
2021/01/19 02:44:44;;;;;;;9.85;3.20;;;;;;;8.89;58.75;101244.03;4989153;28;114666;-69
2021/01/19 02:47:13;;;;;;;14.73;3.28;;;;;;;8.88;58.78;101237.03;4987949;28;113714;-69
2021/01/19 02:49:41;;;;;;;12.48;3.75;;;;;;;8.88;58.86;101237.03;4966692;28;124153;-69
2021/01/19 02:52:09;;;;;;;12.32;3.47;;;;;;;8.88;59.22;101221.19;4987429;28;124078;-69
2021/01/19 02:54:37;;;;;;;11.27;3.45;;;;;;;8.88;59.16;101215.91;4990887;28;114070;-70
2021/01/19 02:57:24;;;;;;;14.57;4.10;;;;;;;8.88;58.90;101215.91;4991951;28;114178;-69
2021/01/19 03:00:08;;;;;;;10.52;3.78;;;;;;;8.88;59.01;101210.63;4989531;28;123750;-68
2021/01/19 03:02:37;;;;;;;15.45;3.95;;;;;;;8.87;59.17;101198.31;4984832;28;123360;-69
2021/01/19 03:05:08;;;;;;;15.10;3.88;;;;;;;8.87;59.22;101198.31;4987769;28;114534;-68
2021/01/19 03:07:44;;;;;;;12.82;4.10;;;;;;;8.85;59.20;101189.56;4975450;28;113937;-70
2021/01/19 03:10:17;;;;;;;11.43;4.00;;;;;;;8.85;59.11;101192.22;4975359;28;123252;-70
2021/01/19 03:12:46;;;;;;;11.05;3.67;;;;;;;8.85;59.25;101184.28;4975643;28;123321;-69
2021/01/19 03:15:16;;;;;;;12.55;4.10;;;;;;;8.87;59.40;101187.75;4989967;28;115177;-69
2021/01/19 03:17:44;;;;;;;17.38;4.28;;;;;;;8.86;59.25;101170.19;4990156;28;114762;-69
2021/01/19 03:20:15;;;;;;;12.38;4.10;;;;;;;8.86;59.16;101172.81;4959495;28;123494;-68
2021/01/19 03:22:41;;;;;;;13.00;3.95;;;;;;;8.86;59.33;101170.19;4984233;28;123582;-69
2021/01/19 03:25:08;;;;;;;17.08;4.57;;;;;;;8.85;59.31;101163.16;4972580;28;114036;-69
2021/01/19 03:27:36;;;;;;;10.70;4.40;;;;;;;8.84;59.36;101145.59;4973060;28;113040;-69
2021/01/19 03:30:04;;;;;;;16.80;4.60;;;;;;;8.86;59.43;101154.34;4993267;28;124693;-69
2021/01/19 03:32:30;;;;;;;17.00;4.72;;;;;;;8.87;59.26;101145.47;4985687;28;124294;-69
2021/01/19 03:34:57;;;;;;;10.00;4.63;;;;;;;8.87;59.33;101129.63;4973214;28;114273;-68
2021/01/19 03:37:23;;;;;;;12.70;4.53;;;;;;;8.87;59.60;101124.34;4974861;28;113370;-69
2021/01/19 03:39:50;;;;;;;14.88;4.78;;;;;;;8.85;59.40;101115.63;4989347;28;124094;-69
2021/01/19 03:42:16;;;;;;;16.55;5.15;;;;;;;8.85;59.62;101105.91;4989335;28;124605;-69
2021/01/19 03:44:44;;;;;;;14.07;4.93;;;;;;;8.84;59.74;101092.78;4958388;28;113387;-69
2021/01/19 03:47:11;;;;;;;14.95;4.82;;;;;;;8.84;59.59;101096.28;4990516;28;114030;-68
2021/01/19 03:49:37;;;;;;;16.70;4.90;;;;;;;8.82;59.70;101082.25;4993215;28;123805;-68
2021/01/19 03:52:04;;;;;;;11.77;4.72;;;;;;;8.82;59.92;101078.78;4957919;28;123311;-69
2021/01/19 03:54:30;;;;;;;15.50;5.05;;;;;;;8.80;60.13;101064.72;4986930;28;114282;-69
2021/01/19 03:56:57;;;;;;;14.38;4.90;;;;;;;8.80;60.03;101064.72;4957889;28;113473;-69
2021/01/19 03:59:23;;;;;;;12.45;4.95;;;;;;;8.77;60.26;101061.28;4974574;28;123571;-68
2021/01/19 04:01:50;;;;;;;16.75;5.70;;;;;;;8.75;60.20;101052.53;4992423;28;124049;-69
2021/01/19 04:04:17;;;;;;;13.85;5.47;;;;;;;8.75;60.15;101052.53;4982590;28;115398;-69
2021/01/19 04:06:43;;;;;;;12.98;5.28;;;;;;;8.74;60.48;101044.69;4992745;28;114104;-68
2021/01/19 04:09:10;;;;;;;14.70;5.30;;;;;;;8.70;60.29;101036.03;4974983;28;123763;-68
2021/01/19 04:11:36;;;;;;;14.10;5.40;;;;;;;8.70;60.34;101033.38;4986564;28;123821;-68
2021/01/19 04:14:03;;;;;;;14.60;4.88;;;;;;;8.70;60.49;101024.56;4988708;28;114340;-68
2021/01/19 04:16:30;;;;;;;14.60;4.82;;;;;;;8.68;60.71;101016.72;4975330;28;113719;-68
2021/01/19 04:18:56;;;;;;;13.75;5.22;;;;;;;8.67;60.49;101017.63;4990682;28;123246;-68
2021/01/19 04:21:25;;;;;;;14.57;5.53;;;;;;;8.66;60.83;101010.59;4974796;28;124227;-68
2021/01/19 04:23:52;;;;;;;14.50;4.93;;;;;;;8.65;60.98;101003.63;4973867;28;113398;-68
2021/01/19 04:26:18;;;;;;;12.70;5.10;;;;;;;8.64;61.11;100996.59;4986887;28;114046;-69
2021/01/19 04:28:45;;;;;;;17.13;5.07;;;;;;;8.64;61.17;100996.59;4986537;28;124673;-68
2021/01/19 04:31:11;;;;;;;13.73;5.25;;;;;;;8.63;61.24;100999.31;4986537;28;124496;-68
2021/01/19 04:33:38;;;;;;;13.57;5.20;;;;;;;8.63;61.06;101000.19;4984763;28;113944;-69
2021/01/19 04:36:06;;;;;;;13.40;5.07;;;;;;;8.62;61.33;100987.88;4989800;28;114274;-70
2021/01/19 04:38:32;;;;;;;9.75;4.78;;;;;;;8.62;61.26;100982.59;4974390;28;124795;-68
2021/01/19 04:40:59;;;;;;;15.00;5.28;;;;;;;8.61;61.76;100975.59;4991857;28;124795;-68
2021/01/19 04:43:27;;;;;;;12.93;4.78;;;;;;;8.59;61.43;100972.16;4991924;28;114505;-68
2021/01/19 04:45:53;;;;;;;16.15;5.28;;;;;;;8.60;61.77;100963.31;4984642;28;114467;-68
2021/01/19 04:48:20;;;;;;;12.30;4.78;;;;;;;8.60;61.94;100955.38;4989130;28;123866;-68
2021/01/19 04:50:47;;;;;;;12.05;4.65;;;;;;;8.61;61.77;100970.31;4973465;28;123667;-68
2021/01/19 04:53:17;;;;;;;15.02;5.13;;;;;;;8.61;61.58;100959.75;5021648;22;115795;-70
2021/01/19 04:55:53;;;;;;;12.95;4.50;;;;;;;8.61;61.88;100954.47;5003787;28;114814;-70
2021/01/19 04:58:22;;;;;;;12.63;4.68;;;;;;;8.61;61.57;100938.66;4979254;28;124266;-70
2021/01/19 05:01:09;;;;;;;13.13;4.60;;;;;;;8.60;62.02;100942.19;4979767;28;122049;-70
2021/01/19 05:03:41;;;;;;;11.43;4.57;;;;;;;8.61;61.86;100933.38;4965606;28;114525;-70
2021/01/19 05:06:27;;;;;;;13.45;4.53;;;;;;;8.62;62.00;100921.88;4986850;28;113653;-70
2021/01/19 05:08:54;;;;;;;;;;;;;;;8.62;62.00;100913.94;4957297;28;123588;-70
2021/01/19 05:11:24;;;;;;;10.73;4.38;;;;;;;8.65;61.82;100902.44;4968326;28;124005;-70
2021/01/19 05:13:55;;;;;;;8.32;4.20;;;;;;;8.62;62.13;100903.38;4962575;28;114151;-70
2021/01/19 05:16:27;;;;;;;10.45;4.50;;;;;;;8.63;62.21;100884.00;4954011;28;114595;-70
2021/01/19 05:18:55;;;;;;;8.63;4.10;;;;;;;8.62;62.08;100874.34;4964035;28;123052;-70
2021/01/19 05:21:22;;;;;;;9.30;4.15;;;;;;;8.63;62.31;100862.88;4981380;28;123518;-70
2021/01/19 05:23:49;;;;;;;12.75;4.55;;;;;;;8.63;62.59;100868.16;4986791;28;114481;-69
2021/01/19 05:26:18;;;;;;;7.68;3.95;;;;;;;8.62;62.53;100863.78;4962708;28;114356;-70
2021/01/19 05:28:48;;;;;;;12.77;4.22;;;;;;;8.63;62.55;100862.88;4975919;28;123936;-70
2021/01/19 05:31:14;;;;;;;6.70;3.72;;;;;;;8.64;62.35;100859.31;4984345;28;124062;-69
2021/01/19 05:33:41;;;;;;;9.25;4.07;;;;;;;8.64;62.72;100848.75;4983525;28;113983;-69
2021/01/19 05:36:09;;;;;;;9.10;3.92;;;;;;;8.64;62.58;100832.91;4987939;28;114555;-70
2021/01/19 05:38:51;;;;;;;8.07;3.70;;;;;;;8.64;62.86;100826.78;4969269;28;124621;-70
2021/01/19 05:41:27;;;;;;;6.90;3.45;;;;;;;8.65;62.85;100818.81;4975985;28;124753;-70
2021/01/19 05:44:07;;;;;;;9.15;3.70;;;;;;;8.67;63.13;100816.97;4969587;28;115550;-70
2021/01/19 05:46:34;;;;;;;9.85;3.90;;;;;;;8.68;62.88;100802.88;4967462;28;113891;-70
2021/01/19 05:49:02;;;;;;;7.97;3.58;;;;;;;8.68;62.97;100797.59;4974204;28;124018;-70
2021/01/19 05:51:30;;;;;;;7.55;3.92;;;;;;;8.71;63.24;100800.09;4967792;28;123679;-70
2021/01/19 05:53:58;;;;;;;10.88;3.92;;;;;;;8.72;63.27;100793.91;4982345;28;115831;-70
2021/01/19 05:56:27;;;;;;;6.80;3.30;;;;;;;8.74;63.12;100781.50;4987760;28;114227;-70
2021/01/19 05:58:54;;;;;;;8.05;3.40;;;;;;;8.77;62.90;100770.78;4965487;28;123775;-71
2021/01/19 06:01:33;;;;;;;4.85;3.50;;;;;;;8.79;63.15;100772.53;4987306;28;124674;-70
2021/01/19 06:04:02;;;;;;;9.05;3.47;;;;;;;8.82;63.36;100772.41;4960330;28;114574;-70
2021/01/19 06:06:30;;;;;;;8.23;3.50;;;;;;;8.84;63.05;100762.66;4963971;28;114213;-70
2021/01/19 06:09:01;;;;;;;5.60;3.33;;;;;;;8.87;63.40;100765.16;4978816;28;124160;-70
2021/01/19 06:11:28;;;;;;;5.93;3.38;;;;;;;8.86;63.25;100747.59;4984311;28;123991;-70
2021/01/19 06:13:56;;;;;;;8.60;3.35;;;;;;;8.87;63.45;100749.31;4968132;28;114458;-70
2021/01/19 06:16:25;;;;;;;6.43;3.03;;;;;;;8.88;63.40;100740.47;4984074;28;114024;-70
2021/01/19 06:18:53;;;;;;;4.82;2.88;;;;;;;8.90;63.59;100731.56;4967768;28;123893;-71
2021/01/19 06:21:34;;;;;;;5.53;3.30;;;;;;;8.91;63.51;100724.50;4980404;28;125113;-70
2021/01/19 06:24:01;;;;;;;6.13;2.83;;;;;;;8.94;63.21;100713.81;4985843;28;114731;-70
2021/01/19 06:26:28;;;;;;;5.82;3.40;;;;;;;8.95;63.61;100705.00;4987669;28;114514;-71
2021/01/19 06:29:00;;;;;;;3.90;2.83;;;;;;;8.97;63.54;100703.13;4986625;28;124330;-70
2021/01/19 06:31:28;;;;;;;5.50;2.83;;;;;;;8.98;63.35;100699.56;4964410;28;123180;-70
2021/01/19 06:33:55;;;;;;;5.97;2.92;;;;;;;8.99;63.63;100679.31;4988378;28;115188;-70
2021/01/19 06:36:22;;;;;;;4.75;3.10;;;;;;;9.00;63.94;100681.88;4969273;28;115726;-70
2021/01/19 06:38:49;;;;;;;5.85;3.03;;;;;;;9.01;63.61;100662.47;4966308;28;123794;-70
2021/01/19 06:41:18;;;;;;;3.75;2.90;;;;;;;9.02;63.57;100658.88;4963028;28;123085;-70
2021/01/19 06:43:50;;;;;;;5.43;2.72;;;;;;;9.02;63.99;100653.59;4967272;28;114232;-70
2021/01/19 06:46:19;;;;;;;6.30;2.95;;;;;;;9.05;63.77;100637.63;4961317;28;114061;-69
2021/01/19 06:48:47;;;;;;;6.18;2.78;;;;;;;9.06;63.77;100649.06;4983561;28;124698;-70
2021/01/19 06:51:15;;;;;;;6.57;3.00;;;;;;;9.07;63.87;100635.78;4983867;28;124270;-70
2021/01/19 06:54:05;;;;;;;5.15;2.53;;;;;;;9.06;63.63;100634.09;4984187;28;114074;-70
2021/01/19 06:56:36;;;;;;;5.10;2.67;;;;;;;9.08;63.83;100621.66;4984749;28;114916;-70
2021/01/19 06:59:23;;;;;;;4.72;2.97;;;;;;;9.10;63.64;100609.25;4974816;28;123500;-70
2021/01/19 07:01:56;;;;;;;3.83;2.40;;;;;;;9.11;63.93;100603.03;4976751;28;124243;-70
2021/01/19 07:04:25;;;;;;;5.85;2.58;;;;;;;9.12;63.73;100602.09;4960403;28;113338;-70
2021/01/19 07:07:07;;;;;;;4.88;2.75;;;;;;;9.13;64.03;100603.81;4987314;28;114202;-70
2021/01/19 07:09:46;;;;;;;6.30;2.25;;;;;;;9.15;63.96;100580.84;4953703;28;124883;-70
2021/01/19 07:12:17;;;;;;;4.95;2.30;;;;;;;9.16;63.90;100566.69;4983557;28;123889;-70
2021/01/19 07:15:02;;;;;;;4.70;2.40;;;;;;;9.19;64.25;100570.13;4963370;28;114525;-70
2021/01/19 07:18:08;;;;;;;4.90;2.20;;;;;;;9.19;64.00;100570.13;4967064;28;113576;-70
2021/01/19 07:20:47;;;;;;;2.70;1.80;;;;;;;9.22;64.32;100564.72;4946448;28;124608;-70
2021/01/19 07:23:54;;;;;;;4.97;2.25;;;;;;;9.21;64.08;100557.72;4959318;28;122549;-69
2021/01/19 07:26:23;;;;;;;4.55;2.25;;;;;;;9.24;63.91;100552.28;4969051;28;113887;-70
2021/01/19 07:28:51;;;;;;;5.70;2.40;;;;;;;9.24;64.18;100558.44;4988401;28;115261;-71
2021/01/19 07:31:20;;;;;;;4.13;2.30;;;;;;;9.27;64.09;100546.88;4962360;28;123027;-71
2021/01/19 07:33:52;;;;;;;3.08;2.20;;;;;;;9.28;64.15;100548.59;4964293;28;124230;-70
2021/01/19 07:36:21;;;;;;;3.95;2.10;;;;;;;9.29;64.05;100539.75;4960986;28;113851;-71
2021/01/19 07:38:52;;;;;;;5.43;2.10;;;;;;;9.29;64.04;100537.09;4978448;28;114126;-71
2021/01/19 07:41:31;;;;;;;3.53;2.10;;;;;;;9.32;64.35;100534.31;4978371;28;127152;-70
2021/01/19 07:43:58;;;;;;;5.68;2.45;;;;;;;9.33;64.12;100528.09;4963445;28;123927;-70
2021/01/19 07:46:40;;;;;;;3.92;2.05;;;;;;;9.34;63.98;100522.75;4964081;28;114013;-71
2021/01/19 07:49:09;;;;;;;4.65;2.22;;;;;;;9.35;64.26;100518.31;4970715;28;114279;-71
2021/01/19 07:51:44;;;;;;;3.13;2.10;;;;;;;9.35;64.09;100523.59;4962623;28;124095;-71
2021/01/19 07:54:12;;;;;;;7.38;2.45;;;;;;;9.37;64.24;100527.03;4972694;28;124247;-70
2021/01/19 07:56:40;;;;;;;4.70;2.38;;;;;;;9.38;64.17;100534.06;4985310;28;114050;-69
2021/01/19 07:59:18;;;;;;;7.68;2.30;;;;;;;9.39;64.26;100519.88;4983984;28;113435;-69
2021/01/19 08:01:55;;;;;;;5.40;2.50;;;;;;;9.40;64.03;100503.13;4980557;28;124335;-69
2021/01/19 08:04:33;;;;;;;5.15;2.30;;;;;;;9.40;64.21;100500.47;4964105;28;124195;-69
2021/01/19 08:07:11;;;;;;;4.38;2.13;;;;;;;9.42;64.37;100484.53;4969709;28;113884;-68
2021/01/19 08:09:37;;;;;;;3.47;2.30;;;;;;;9.43;64.20;100489.75;4957324;28;113291;-69
2021/01/19 08:12:09;;;;;;;5.05;2.22;;;;;;;9.44;64.32;100478.25;4987685;28;124117;-69
2021/01/19 08:14:41;;;;;;;3.83;2.05;;;;;;;9.45;64.14;100466.75;4960952;28;123910;-71
2021/01/19 08:17:08;;;;;;;5.22;2.50;;;;;;;9.47;64.32;100467.53;4975154;28;115389;-69
2021/01/19 08:19:40;;;;;;;3.83;2.53;;;;;;;9.47;64.48;100470.16;4962225;28;115560;-69
2021/01/19 08:22:09;;;;;;;4.30;2.05;;;;;;;9.49;64.57;100473.63;4956946;28;124324;-69
2021/01/19 08:24:43;;;;;;;3.88;1.83;;;;;;;9.51;64.37;100465.59;4966523;28;123711;-70
2021/01/19 08:27:10;;;;;;;5.28;2.42;;;;;;;9.52;64.58;100468.19;4973273;28;114522;-70
2021/01/19 08:29:38;;;;;;;5.65;2.40;;;;;;;9.53;64.35;100469.91;4956918;28;114203;-69
2021/01/19 08:32:08;;;;;;;5.15;2.42;;;;;;;9.55;64.78;100467.19;4961619;28;123375;-69
2021/01/19 08:34:38;;;;;;;4.45;2.47;;;;;;;9.58;64.76;100467.03;4980902;28;123649;-70
2021/01/19 08:37:05;;;;;;;3.92;2.30;;;;;;;9.60;64.70;100466.97;4988117;28;113975;-70
2021/01/19 08:39:32;;;;;;;4.28;2.45;;;;;;;9.62;64.90;100457.16;4959392;28;113655;-70
2021/01/19 08:42:10;;;;;;;5.50;2.60;;;;;;;9.65;64.53;100467.59;4945499;28;123468;-70
2021/01/19 08:44:37;;;;;;;5.30;2.47;;;;;;;9.68;64.98;100446.28;4981262;28;123817;-71
2021/01/19 08:47:05;;;;;;;4.28;2.22;;;;;;;9.70;64.91;100444.44;4974658;28;114358;-71
2021/01/19 08:49:35;;;;;;;2.97;2.30;;;;;;;9.73;64.47;100446.94;4962384;28;115964;-70
2021/01/19 08:52:05;;;;;;;3.40;2.35;;;;;;;9.77;64.71;100451.16;4939810;28;125539;-70
2021/01/19 08:54:32;;;;;;;4.53;2.22;;;;;;;9.80;64.89;100451.00;4956237;28;125406;-71
2021/01/19 08:56:59;;;;;;;4.28;2.25;;;;;;;9.82;64.88;100443.00;4951617;28;114551;-70
2021/01/19 08:59:51;;;;;;;5.10;2.08;;;;;;;9.85;64.82;100443.72;4953946;28;114004;-70
2021/01/19 09:02:18;;;;;;;4.25;2.15;;;;;;;9.87;64.71;100444.50;4950903;28;122945;-70
2021/01/19 09:04:46;;;;;;;3.03;2.08;;;;;;;9.91;64.81;100454.00;4979745;28;123984;-70
2021/01/19 09:07:12;;;;;;;3.28;2.03;;;;;;;9.94;64.83;100443.28;4978106;28;115493;-70
2021/01/19 09:09:46;;;;;;;3.45;1.92;;;;;;;9.97;64.89;100436.13;4955542;28;114793;-70
2021/01/19 09:12:18;;;;;;;4.10;2.00;;;;;;;10.00;65.00;100430.66;4966928;28;123971;-70
2021/01/19 09:14:52;;;;;;;4.55;2.28;;;;;;;10.02;65.06;100444.66;4949908;28;124276;-71
2021/01/19 09:17:27;;;;;;;4.50;2.03;;;;;;;10.05;65.13;100444.53;4968756;28;114258;-71
2021/01/19 09:20:08;;;;;;;3.97;2.00;;;;;;;10.09;65.11;100436.34;4980237;28;113048;-71
2021/01/19 09:22:36;;;;;;;4.82;1.83;;;;;;;10.13;64.98;100437.94;4957576;28;124196;-71
2021/01/19 09:25:05;;;;;;;3.58;2.03;;;;;;;10.16;65.21;100444.84;4984332;22;123311;-71
2021/01/19 09:27:32;;;;;;;5.72;3.10;;;;;;;10.19;65.03;100436.75;4956394;28;115225;-69
2021/01/19 09:30:11;;;;;;;3.63;2.03;;;;;;;10.23;65.06;100448.06;4979498;28;114283;-69
2021/01/19 09:32:39;;;;;;;5.20;2.30;;;;;;;10.26;64.93;100448.72;4964598;28;124323;-70
2021/01/19 09:35:08;;;;;;;3.97;1.83;;;;;;;10.30;65.22;100442.41;4977473;28;123794;-71
2021/01/19 09:37:35;;;;;;;3.92;2.03;;;;;;;10.35;65.03;100473.09;4968257;28;113058;-71
2021/01/19 09:40:04;;;;;;;4.43;2.08;;;;;;;10.37;65.07;100442.94;4982399;28;114335;-71
2021/01/19 09:42:31;;;;;;;3.33;2.00;;;;;;;10.42;65.50;100445.38;4973204;28;123259;-71
2021/01/19 09:44:58;;;;;;;4.47;1.92;;;;;;;10.44;65.39;100446.16;4972548;28;123376;-71
2021/01/19 09:47:27;;;;;;;3.90;1.88;;;;;;;10.47;65.10;100457.44;4992236;28;113972;-70
2021/01/19 09:49:54;;;;;;;4.45;1.95;;;;;;;10.51;65.39;100437.81;4981377;28;113946;-70
2021/01/19 09:52:29;;;;;;;4.03;2.33;;;;;;;10.54;65.23;100457.13;4960415;28;123801;-71
2021/01/19 09:55:10;;;;;;;4.68;1.88;;;;;;;10.56;65.04;100450.78;4968766;28;123032;-71
2021/01/19 09:57:37;;;;;;;3.90;1.80;;;;;;;10.60;65.21;100436.47;4973248;28;115394;-70
2021/01/19 10:00:06;;;;;;;3.33;1.80;;;;;;;10.62;65.51;100458.41;4989468;28;115521;-70
2021/01/19 10:02:39;;;;;;;3.90;2.03;;;;;;;10.66;65.40;100443.22;4990602;28;124757;-70
2021/01/19 10:05:07;;;;;;;4.13;2.17;;;;;;;10.67;65.26;100432.56;4990496;28;124472;-70
2021/01/19 10:07:34;;;;;;;3.38;2.10;;;;;;;10.71;65.38;100438.56;4987978;28;114202;-70
2021/01/19 10:10:07;;;;;;;3.22;2.03;;;;;;;10.75;65.38;100449.84;4989938;28;113910;-70
2021/01/19 10:12:34;;;;;;;3.20;2.20;;;;;;;10.77;65.42;100447.97;4967669;28;123364;-70
2021/01/19 10:15:00;;;;;;;2.70;2.15;;;;;;;10.79;65.35;100440.81;4985479;28;124063;-70
2021/01/19 10:17:31;;;;;;;3.17;2.17;;;;;;;10.82;65.47;100435.34;4986947;28;113896;-71
2021/01/19 10:20:13;;;;;;;3.08;2.13;;;;;;;10.84;65.35;100438.78;4991631;28;114126;-70
2021/01/19 10:22:45;;;;;;;3.75;2.30;;;;;;;10.86;65.29;100443.03;4977700;28;123732;-70
2021/01/19 10:25:25;;;;;;;4.55;2.28;;;;;;;10.89;65.37;100447.34;4980384;28;123980;-70
2021/01/19 10:27:58;;;;;;;6.72;2.70;;;;;;;10.91;65.67;100442.81;4966154;28;113301;-70
2021/01/19 10:30:35;;;;;;;3.00;2.30;;;;;;;10.95;65.67;100451.47;4953903;28;113815;-70
2021/01/19 10:33:03;;;;;;;5.68;2.80;;;;;;;10.98;65.55;100451.28;4968484;28;123459;-70
2021/01/19 10:35:35;;;;;;;4.80;2.58;;;;;;;10.99;65.44;100451.22;4980649;28;124333;-70
2021/01/19 10:38:04;;;;;;;6.22;2.63;;;;;;;11.01;65.75;100451.97;4969883;28;113734;-70
2021/01/19 10:40:31;;;;;;;4.93;4.53;;;;;;;11.05;65.69;100448.22;4964672;28;114027;-70
2021/01/19 10:43:00;;;;;;;4.75;2.78;;;;;;;11.06;65.46;100443.81;4977159;28;124062;-70
2021/01/19 10:45:31;;;;;;;4.53;2.85;;;;;;;11.09;65.74;100444.50;4979169;28;123930;-70
2021/01/19 10:47:59;;;;;;;4.10;2.38;;;;;;;11.13;65.73;100441.66;4972318;28;114876;-68
2021/01/19 10:50:29;;;;;;;4.75;3.05;;;;;;;11.15;65.76;100437.13;4974381;28;114422;-69
2021/01/19 10:52:58;;;;;;;4.82;2.63;;;;;;;11.18;65.69;100436.97;4984784;28;124663;-69
2021/01/19 10:55:25;;;;;;;5.70;2.95;;;;;;;11.22;65.75;100443.81;4992822;22;124350;-69
2021/01/19 10:57:56;;;;;;;5.55;2.75;;;;;;;11.25;65.80;100435.72;4974003;28;113611;-69
2021/01/19 11:00:25;;;;;;;4.32;2.70;;;;;;;11.27;65.78;100449.72;4968175;28;113279;-69
2021/01/19 11:02:52;;;;;;;3.85;3.05;;;;;;;11.29;65.98;100445.19;4960383;28;124384;-68
2021/01/19 11:05:19;;;;;;;4.45;3.40;;;;;;;11.31;65.90;100443.31;4961359;28;123778;-68
2021/01/19 11:07:48;;;;;;;4.57;3.35;;;;;;;11.34;66.09;100448.47;4962148;28;114410;-68
2021/01/19 11:10:17;;;;;;;5.20;3.28;;;;;;;11.37;66.08;100442.13;4958677;28;114424;-67
2021/01/19 11:12:44;;;;;;;5.30;3.15;;;;;;;11.40;66.08;100437.53;4968057;28;123140;-68
2021/01/19 11:15:11;;;;;;;5.90;3.60;;;;;;;11.42;66.04;100440.94;4966779;28;124084;-67
2021/01/19 11:17:39;;;;;;;6.60;3.50;;;;;;;11.45;65.96;100451.38;4968183;28;114612;-67
2021/01/19 11:20:08;;;;;;;4.82;3.90;;;;;;;11.47;66.17;100441.53;4954930;28;113480;-67
2021/01/19 11:22:35;;;;;;;6.47;4.18;;;;;;;11.50;66.18;100433.41;4957950;28;123703;-68
2021/01/19 11:25:03;;;;;;;8.10;4.13;;;;;;;11.55;66.48;100445.56;4948012;28;122741;-67
2021/01/19 11:27:30;;;;;;;5.18;4.18;;;;;;;11.60;66.51;100454.13;4978219;28;114182;-67
2021/01/19 11:29:57;;;;;;;6.85;4.43;;;;;;;11.62;66.21;100452.22;4971203;28;113026;-68
2021/01/19 11:32:25;;;;;;;6.38;4.55;;;;;;;11.67;66.60;100444.88;4959728;28;122576;-68
2021/01/19 11:34:52;;;;;;;7.57;5.18;;;;;;;11.71;66.54;100446.41;4960746;28;123846;-68
2021/01/19 11:37:18;;;;;;;7.43;5.25;;;;;;;11.76;66.49;100454.97;4965174;28;115239;-68